Time;durP1;ratioP1;P1;durP2;ratioP2;P2;SDS_P1;SDS_P2;PMS_P1;PMS_P2;Temp;Humidity;BMP_temperature;BMP_pressure;BME280_temperature;BME280_humidity;BME280_pressure;Samples;Min_cycle;Max_cycle;Signal;HPM_P1;HPM_P2
2023/04/16 00:00:07;;;;;;;37.22;14.77;;;;;;;8.63;100.00;102052.75;4975214;28;20034;-71
2023/04/16 00:02:39;;;;;;;45.75;16.30;;;;;;;8.52;100.00;102050.47;4978352;28;20046;-71
2023/04/16 00:05:05;;;;;;;47.35;17.27;;;;;;;8.54;100.00;102053.97;4978827;28;20752;-71
2023/04/16 00:07:30;;;;;;;46.67;15.82;;;;;;;8.52;100.00;102063.75;4977348;28;20030;-71
2023/04/16 00:09:56;;;;;;;45.75;16.65;;;;;;;8.66;100.00;102057.09;4977216;28;20046;-71
2023/04/16 00:12:23;;;;;;;47.95;15.77;;;;;;;8.54;100.00;102059.28;4992114;28;20034;-71
2023/04/16 00:14:48;;;;;;;39.38;16.10;;;;;;;8.52;100.00;102055.78;4976918;28;20195;-70
2023/04/16 00:17:14;;;;;;;48.30;17.13;;;;;;;8.38;100.00;102063.38;4983636;28;20857;-71
2023/04/16 00:19:40;;;;;;;46.83;17.77;;;;;;;8.63;100.00;102057.19;4976635;28;20683;-71
2023/04/16 00:22:06;;;;;;;46.63;17.50;;;;;;;8.57;100.00;102064.47;4980190;28;20875;-71
2023/04/16 00:24:31;;;;;;;44.90;16.17;;;;;;;8.59;100.00;102053.81;4988722;28;20042;-71
2023/04/16 00:26:57;;;;;;;46.65;17.58;;;;;;;8.67;100.00;102053.50;4978989;28;20042;-71
2023/04/16 00:29:22;;;;;;;50.65;16.20;;;;;;;8.60;100.00;102052.88;4973634;28;20122;-71
2023/04/16 00:31:48;;;;;;;46.78;16.45;;;;;;;8.66;100.00;102050.00;4973969;28;20039;-71
2023/04/16 00:34:13;;;;;;;46.17;16.35;;;;;;;8.68;100.00;102049.91;4974175;28;20035;-71
2023/04/16 00:36:39;;;;;;;43.00;17.10;;;;;;;8.60;100.00;102050.22;4971890;28;20042;-71
2023/04/16 00:39:04;;;;;;;49.78;18.17;;;;;;;8.53;100.00;102057.56;4974431;28;20038;-71
2023/04/16 00:41:30;;;;;;;43.78;16.40;;;;;;;8.65;100.00;102053.56;4974021;28;20830;-71
2023/04/16 00:43:56;;;;;;;35.38;15.45;;;;;;;8.61;100.00;102046.63;4975815;28;20057;-71
2023/04/16 00:46:23;;;;;;;52.53;17.83;;;;;;;8.65;100.00;102053.56;4970534;28;20039;-71
2023/04/16 00:48:50;;;;;;;48.53;17.27;;;;;;;8.64;100.00;102054.50;4972003;28;20034;-71
2023/04/16 00:51:17;;;;;;;55.30;16.30;;;;;;;8.66;100.00;102049.13;4977896;28;20042;-71
2023/04/16 00:53:44;;;;;;;37.03;16.60;;;;;;;8.52;100.00;102063.75;4973107;28;21240;-71
2023/04/16 00:56:11;;;;;;;43.63;17.70;;;;;;;8.70;100.00;102058.72;4973151;28;20039;-71
2023/04/16 00:58:38;;;;;;;56.30;18.08;;;;;;;8.65;100.00;102064.22;4973668;28;20667;-72
2023/04/16 01:01:04;;;;;;;44.08;17.05;;;;;;;8.62;100.00;102066.09;4983518;28;20109;-72
2023/04/16 01:03:43;;;;;;;51.55;17.98;;;;;;;8.62;100.00;102069.63;4974217;28;20035;-71
2023/04/16 01:06:10;;;;;;;47.13;17.25;;;;;;;8.64;100.00;102070.47;4989382;28;20034;-71
2023/04/16 01:08:35;;;;;;;50.85;17.88;;;;;;;8.78;100.00;102075.25;4972019;28;20071;-71
2023/04/16 01:11:01;;;;;;;48.58;17.17;;;;;;;8.65;100.00;102077.50;4977345;28;20038;-71
2023/04/16 01:13:26;;;;;;;41.47;19.23;;;;;;;8.64;100.00;102077.56;4959691;28;20034;-71
2023/04/16 01:15:52;;;;;;;55.33;19.27;;;;;;;8.30;100.00;102076.03;4973136;28;20905;-71
2023/04/16 01:18:20;;;;;;;54.33;18.50;;;;;;;8.57;100.00;102083.06;4972166;28;20051;-71
2023/04/16 01:20:49;;;;;;;58.47;21.15;;;;;;;8.66;100.00;102075.72;4973148;28;20041;-71
2023/04/16 01:23:17;;;;;;;66.93;23.00;;;;;;;8.63;100.00;102081.13;4974896;28;20035;-71
2023/04/16 01:25:43;;;;;;;54.80;21.10;;;;;;;8.67;100.00;102074.78;4976965;28;20069;-71
2023/04/16 01:28:09;;;;;;;61.80;20.10;;;;;;;8.65;100.00;102077.50;4972717;28;20043;-71
2023/04/16 01:30:35;;;;;;;71.18;23.85;;;;;;;8.59;100.00;102077.72;4988119;28;20042;-71
2023/04/16 01:33:12;;;;;;;65.30;22.05;;;;;;;8.57;100.00;102082.22;4971808;28;20089;-71
2023/04/16 01:35:39;;;;;;;71.03;24.63;;;;;;;8.59;100.00;102084.84;4976752;28;20097;-72
2023/04/16 01:38:06;;;;;;;65.95;23.40;;;;;;;8.40;100.00;102082.81;4972995;28;20048;-71
2023/04/16 01:40:32;;;;;;;74.47;25.17;;;;;;;8.58;100.00;102086.59;4974026;28;20047;-71
2023/04/16 01:42:58;;;;;;;69.03;23.90;;;;;;;8.57;100.00;102083.06;4970994;28;20050;-71
2023/04/16 01:45:24;;;;;;;73.90;24.45;;;;;;;8.59;100.00;102080.38;4983237;28;20031;-72
2023/04/16 01:47:50;;;;;;;75.10;26.92;;;;;;;8.45;100.00;102080.00;4979637;28;20039;-72
2023/04/16 01:50:17;;;;;;;85.10;25.58;;;;;;;8.19;100.00;102086.16;4969869;28;20085;-72
2023/04/16 01:52:42;;;;;;;88.53;26.92;;;;;;;8.50;100.00;102075.38;4986736;28;20039;-72
2023/04/16 01:55:08;;;;;;;84.13;25.65;;;;;;;8.54;100.00;102077.03;4978805;28;20744;-72
2023/04/16 01:57:34;;;;;;;90.70;28.65;;;;;;;8.49;100.00;102073.66;4973769;28;20047;-72
2023/04/16 01:59:59;;;;;;;82.57;25.65;;;;;;;8.40;100.00;102076.63;4978667;28;20452;-70
2023/04/16 02:02:27;;;;;;;90.85;26.63;;;;;;;8.52;100.00;102074.41;4984487;28;20027;-72
2023/04/16 02:04:55;;;;;;;83.97;26.75;;;;;;;8.47;100.00;102079.00;4986822;28;20027;-70
2023/04/16 02:07:21;;;;;;;77.40;25.40;;;;;;;8.52;100.00;102076.19;4973341;28;20043;-72
2023/04/16 02:09:46;;;;;;;73.63;26.35;;;;;;;8.46;100.00;102079.94;4973095;28;20046;-72
2023/04/16 02:12:12;;;;;;;69.30;25.00;;;;;;;8.62;100.00;102079.41;4972350;28;20039;-72
2023/04/16 02:14:38;;;;;;;78.30;27.13;;;;;;;8.59;100.00;102076.88;4973038;28;20114;-72
2023/04/16 02:17:03;;;;;;;81.78;27.40;;;;;;;8.51;100.00;102074.47;4974185;28;20061;-72
2023/04/16 02:19:35;;;;;;;73.60;26.17;;;;;;;8.59;100.00;102076.88;4983688;28;20126;-72
2023/04/16 02:22:01;;;;;;;77.78;26.88;;;;;;;8.67;100.00;102088.06;4974467;28;20749;-72
2023/04/16 02:24:27;;;;;;;79.88;28.52;;;;;;;8.35;100.00;102081.19;4973795;28;20065;-72
2023/04/16 02:26:53;;;;;;;92.65;26.77;;;;;;;8.46;100.00;102089.69;4972510;28;20113;-71
2023/04/16 02:29:20;;;;;;;82.50;28.48;;;;;;;8.52;100.00;102092.13;4961451;28;20854;-71
2023/04/16 02:31:51;;;;;;;74.43;27.75;;;;;;;8.54;100.00;102085.00;4977597;28;20059;-72
2023/04/16 02:34:17;;;;;;;89.30;28.85;;;;;;;8.46;100.00;102087.91;4993070;28;20035;-71
2023/04/16 02:36:43;;;;;;;89.45;31.15;;;;;;;8.56;100.00;102084.00;4976649;28;20460;-71
2023/04/16 02:39:08;;;;;;;89.97;29.33;;;;;;;8.29;100.00;102090.25;4975659;28;20031;-71
2023/04/16 02:41:34;;;;;;;82.72;27.23;;;;;;;8.38;100.00;102089.09;4990158;28;20035;-71
2023/04/16 02:43:59;;;;;;;81.65;30.25;;;;;;;8.42;100.00;102094.25;4976308;28;20043;-71
2023/04/16 02:46:25;;;;;;;73.53;27.35;;;;;;;8.42;100.00;102101.34;4990616;28;20109;-71
2023/04/16 02:48:51;;;;;;;92.22;27.83;;;;;;;8.59;100.00;102098.13;4976036;28;20788;-71
2023/04/16 02:51:16;;;;;;;76.20;27.88;;;;;;;8.62;100.00;102093.56;4990919;28;20041;-72
2023/04/16 02:53:44;;;;;;;82.03;28.63;;;;;;;8.61;100.00;102096.28;4981195;28;20858;-71
2023/04/16 02:56:11;;;;;;;86.10;29.13;;;;;;;8.42;100.00;102096.91;4983270;28;20067;-72
2023/04/16 02:58:37;;;;;;;79.97;30.45;;;;;;;8.43;100.00;102100.44;4976580;28;20043;-72
2023/04/16 03:01:03;;;;;;;71.55;28.67;;;;;;;8.48;100.00;102096.72;4974735;28;20030;-72
2023/04/16 03:03:29;;;;;;;91.95;27.98;;;;;;;8.56;100.00;102099.97;4983735;28;20039;-72
2023/04/16 03:05:55;;;;;;;85.43;29.10;;;;;;;8.63;100.00;102105.91;4978199;28;20720;-71
2023/04/16 03:08:20;;;;;;;88.35;30.27;;;;;;;8.62;100.00;102098.88;4980526;28;20885;-72
2023/04/16 03:10:46;;;;;;;82.88;28.45;;;;;;;8.53;100.00;102104.50;4976737;28;20768;-72
2023/04/16 03:13:13;;;;;;;91.57;31.92;;;;;;;8.50;100.00;102102.84;4977864;28;20145;-72
2023/04/16 03:15:38;;;;;;;85.57;30.67;;;;;;;8.53;100.00;102104.50;4990341;28;20042;-71
2023/04/16 03:18:04;;;;;;;94.10;32.47;;;;;;;8.50;100.00;102105.50;4976673;28;20050;-71
2023/04/16 03:20:30;;;;;;;106.80;35.92;;;;;;;8.59;100.00;102099.00;4976778;28;20035;-71
2023/04/16 03:22:56;;;;;;;100.07;33.88;;;;;;;8.59;100.00;102114.94;4976226;28;20675;-71
2023/04/16 03:25:21;;;;;;;98.93;33.15;;;;;;;8.55;100.00;102110.66;4976364;28;20515;-71
2023/04/16 03:27:47;;;;;;;99.25;32.78;;;;;;;8.42;100.00;102118.16;4976653;28;20145;-71
2023/04/16 03:30:15;;;;;;;104.10;33.13;;;;;;;8.44;100.00;102111.03;4982555;28;20030;-71
2023/04/16 03:32:41;;;;;;;116.03;33.88;;;;;;;8.38;100.00;102115.66;4979861;28;20050;-71
2023/04/16 03:35:08;;;;;;;107.70;32.92;;;;;;;8.48;100.00;102122.41;4974427;28;20081;-71
2023/04/16 03:37:34;;;;;;;118.00;35.35;;;;;;;8.39;100.00;102126.25;4976756;28;20042;-71
2023/04/16 03:40:00;;;;;;;106.32;35.03;;;;;;;8.60;100.00;102123.78;4990594;28;20035;-71
2023/04/16 03:42:26;;;;;;;113.35;34.78;;;;;;;8.60;100.00;102115.81;4973613;28;20092;-71
2023/04/16 03:44:52;;;;;;;103.30;34.60;;;;;;;8.64;100.00;102112.13;4980874;28;20766;-71
2023/04/16 03:47:20;;;;;;;92.43;31.45;;;;;;;8.58;100.00;102115.84;4978918;28;20037;-71
2023/04/16 03:49:46;;;;;;;108.45;33.17;;;;;;;8.62;100.00;102116.63;4989957;28;20039;-71
2023/04/16 03:52:12;;;;;;;102.65;34.25;;;;;;;8.65;100.00;102120.06;4972983;28;20039;-70
2023/04/16 03:54:38;;;;;;;116.50;34.97;;;;;;;8.69;100.00;102123.47;4972819;28;20110;-70
2023/04/16 03:57:15;;;;;;;114.07;35.92;;;;;;;8.64;100.00;102128.97;4994666;28;20575;-70
2023/04/16 03:59:41;;;;;;;94.28;32.53;;;;;;;8.71;100.00;102125.16;4974808;28;20039;-70
2023/04/16 04:02:06;;;;;;;119.10;35.75;;;;;;;8.55;100.00;102118.63;4988263;28;20114;-70
2023/04/16 04:04:32;;;;;;;128.15;36.72;;;;;;;8.62;100.00;102121.94;4981690;28;20860;-70
2023/04/16 04:06:57;;;;;;;119.95;38.00;;;;;;;8.45;100.00;102127.84;4990033;28;20109;-70
2023/04/16 04:09:24;;;;;;;123.88;38.92;;;;;;;8.53;100.00;102132.00;4979113;28;20049;-70
2023/04/16 04:11:51;;;;;;;128.48;36.83;;;;;;;8.55;100.00;102138.09;4977171;28;20061;-70
2023/04/16 04:14:17;;;;;;;130.38;39.38;;;;;;;8.56;100.00;102126.53;4966965;28;20073;-70
2023/04/16 04:16:42;;;;;;;151.60;41.08;;;;;;;8.59;100.00;102136.22;4973784;28;20046;-70
2023/04/16 04:19:08;;;;;;;141.27;39.33;;;;;;;8.62;100.00;102125.47;4973943;28;20165;-70
2023/04/16 04:21:33;;;;;;;158.57;43.15;;;;;;;8.61;100.00;102137.03;4971488;28;20476;-70
2023/04/16 04:23:59;;;;;;;141.27;43.45;;;;;;;8.55;100.00;102132.78;4991898;28;20512;-70
2023/04/16 04:26:28;;;;;;;153.90;40.90;;;;;;;8.53;100.00;102133.75;4989105;28;20035;-70
2023/04/16 04:28:53;;;;;;;126.20;37.15;;;;;;;8.48;100.00;102136.59;4974451;28;20543;-70
2023/04/16 04:31:19;;;;;;;172.70;41.95;;;;;;;8.52;100.00;102150.63;4975422;28;20046;-70
2023/04/16 04:33:44;;;;;;;143.35;40.10;;;;;;;8.46;100.00;102149.03;4975492;28;20141;-70
2023/04/16 04:36:11;;;;;;;157.98;42.83;;;;;;;8.41;100.00;102158.09;4980841;28;20039;-70
2023/04/16 04:38:36;;;;;;;128.38;39.92;;;;;;;8.51;100.00;102160.41;4989485;28;20113;-70
2023/04/16 04:41:02;;;;;;;149.43;38.33;;;;;;;8.58;100.00;102158.38;4987204;28;20571;-70
2023/04/16 04:43:32;;;;;;;136.32;40.78;;;;;;;8.56;100.00;102155.78;4972629;28;20992;-70
2023/04/16 04:45:58;;;;;;;162.15;41.50;;;;;;;8.57;100.00;102161.97;4972690;28;20039;-70
2023/04/16 04:48:26;;;;;;;145.15;41.45;;;;;;;8.58;100.00;102166.38;4974710;28;20035;-70
2023/04/16 04:50:52;;;;;;;150.95;43.00;;;;;;;8.41;100.00;102158.09;4974335;28;20098;-70
2023/04/16 04:53:18;;;;;;;144.98;40.08;;;;;;;8.64;100.00;102166.19;4973078;28;20035;-70
2023/04/16 04:55:44;;;;;;;158.50;42.83;;;;;;;8.60;100.00;102169.84;4975023;28;20118;-70
2023/04/16 04:58:10;;;;;;;154.38;42.30;;;;;;;8.50;100.00;102169.28;4979216;28;20050;-70
2023/04/16 05:00:36;;;;;;;139.25;41.55;;;;;;;8.62;100.00;102167.13;4984274;28;20035;-70
2023/04/16 05:03:03;;;;;;;128.70;40.95;;;;;;;8.64;100.00;102166.19;4983521;28;20039;-70
2023/04/16 05:05:28;;;;;;;139.82;42.85;;;;;;;8.57;100.00;102176.13;4975342;28;20035;-71
2023/04/16 05:07:54;;;;;;;141.77;41.58;;;;;;;8.65;100.00;102173.22;4974248;28;20039;-70
2023/04/16 05:10:20;;;;;;;142.52;43.67;;;;;;;8.51;100.00;102175.47;4976953;28;20035;-70
2023/04/16 05:12:47;;;;;;;175.35;46.85;;;;;;;8.64;100.00;102174.16;4981286;28;20106;-70
2023/04/16 05:15:14;;;;;;;135.65;43.65;;;;;;;8.80;100.00;102171.84;4989864;28;20057;-70
2023/04/16 05:17:40;;;;;;;174.00;46.22;;;;;;;8.79;100.00;102164.78;4977762;28;20119;-70
2023/04/16 05:20:07;;;;;;;173.52;44.63;;;;;;;8.86;100.00;102168.09;4981714;28;20112;-70
2023/04/16 05:22:33;;;;;;;142.23;44.13;;;;;;;8.82;100.00;102170.84;4973277;28;20066;-70
2023/04/16 05:24:58;;;;;;;122.15;42.28;;;;;;;8.80;100.00;102172.72;4974918;28;20050;-71
2023/04/16 05:27:24;;;;;;;123.50;40.65;;;;;;;8.80;100.00;102180.69;4986289;28;20042;-72
2023/04/16 05:29:49;;;;;;;117.95;40.60;;;;;;;8.80;100.00;102182.47;4972691;28;32146;-71
2023/04/16 05:32:15;;;;;;;130.88;41.10;;;;;;;8.83;100.00;102190.34;4973484;28;20198;-71
2023/04/16 05:34:40;;;;;;;128.48;41.17;;;;;;;8.94;100.00;102177.56;4976294;28;20137;-71
2023/04/16 05:37:06;;;;;;;150.60;42.17;;;;;;;8.90;100.00;102183.91;4972595;28;20370;-71
2023/04/16 05:39:31;;;;;;;135.13;41.38;;;;;;;8.92;100.00;102182.03;4973799;28;20050;-71
2023/04/16 05:41:57;;;;;;;147.48;42.40;;;;;;;8.65;100.00;102191.84;4974727;28;20050;-71
2023/04/16 05:44:22;;;;;;;127.53;41.65;;;;;;;8.67;100.00;102205.06;4976388;28;20039;-72
2023/04/16 05:46:48;;;;;;;118.70;40.30;;;;;;;8.88;100.00;102207.00;4977008;28;20089;-72
2023/04/16 05:49:14;;;;;;;139.65;44.10;;;;;;;8.81;100.00;102216.13;4975831;28;20050;-71
2023/04/16 05:51:39;;;;;;;142.63;44.25;;;;;;;8.73;100.00;102210.19;4976944;28;21535;-71
2023/04/16 05:54:05;;;;;;;136.98;39.42;;;;;;;8.85;100.00;102201.81;4976475;28;20133;-71
2023/04/16 05:56:30;;;;;;;143.13;42.67;;;;;;;8.95;100.00;102211.22;4989079;28;20034;-71
2023/04/16 05:58:56;;;;;;;137.45;41.63;;;;;;;9.11;100.00;102205.34;4992930;28;20050;-72
2023/04/16 06:01:22;;;;;;;165.02;46.22;;;;;;;9.07;100.00;102207.25;4976073;28;20049;-71
2023/04/16 06:03:48;;;;;;;152.88;40.78;;;;;;;8.98;100.00;102204.91;4977497;28;20042;-72
2023/04/16 06:06:13;;;;;;;159.98;43.85;;;;;;;8.92;100.00;102205.13;4979700;28;20035;-71
2023/04/16 06:08:39;;;;;;;156.98;42.30;;;;;;;8.89;100.00;102216.75;4972749;28;20893;-71
2023/04/16 06:11:04;;;;;;;122.28;39.08;;;;;;;8.87;100.00;102218.56;4973048;28;20106;-71
2023/04/16 06:13:30;;;;;;;157.90;41.15;;;;;;;8.84;100.00;102218.69;4972668;28;20027;-71
2023/04/16 06:15:55;;;;;;;154.77;45.58;;;;;;;8.75;100.00;102219.00;4973860;28;20850;-72
2023/04/16 06:18:21;;;;;;;173.25;46.00;;;;;;;8.84;100.00;102225.81;4995353;28;20501;-72
2023/04/16 06:20:46;;;;;;;173.10;44.78;;;;;;;8.97;100.00;102227.97;4980858;28;20038;-71
2023/04/16 06:23:12;;;;;;;179.27;47.35;;;;;;;8.83;100.00;102230.22;4974432;28;20039;-71
2023/04/16 06:25:38;;;;;;;130.50;39.83;;;;;;;8.94;100.00;102228.09;4980868;28;20602;-71
2023/04/16 06:28:03;;;;;;;141.80;44.03;;;;;;;9.01;100.00;102234.94;4974679;28;20813;-71
2023/04/16 06:30:29;;;;;;;131.68;42.05;;;;;;;8.77;100.00;102233.09;4976045;28;20604;-71
2023/04/16 06:32:54;;;;;;;133.13;44.05;;;;;;;8.86;100.00;102237.25;4978515;28;20038;-69
2023/04/16 06:35:20;;;;;;;108.25;39.20;;;;;;;8.89;100.00;102234.50;4992936;28;20748;-69
2023/04/16 06:37:46;;;;;;;127.60;37.40;;;;;;;9.22;100.00;102232.44;4976063;28;20046;-72
2023/04/16 06:40:11;;;;;;;114.80;39.05;;;;;;;9.18;100.00;102231.69;4976899;28;20257;-70
2023/04/16 06:42:37;;;;;;;119.05;41.75;;;;;;;9.40;100.00;102221.16;4983730;28;20109;-71
2023/04/16 06:45:04;;;;;;;115.38;40.13;;;;;;;9.40;100.00;102223.81;4986470;28;20030;-71
2023/04/16 06:47:30;;;;;;;104.05;37.28;;;;;;;9.14;100.00;102238.06;4977017;28;20038;-72
2023/04/16 06:49:55;;;;;;;95.82;36.83;;;;;;;9.38;100.00;102230.97;4976523;28;20046;-69
2023/04/16 06:52:21;;;;;;;103.15;36.97;;;;;;;9.14;100.00;102235.38;4990916;28;20752;-70
2023/04/16 06:54:47;;;;;;;88.28;36.30;;;;;;;9.36;100.00;102237.28;4976529;28;20058;-72
2023/04/16 06:57:12;;;;;;;100.82;38.75;;;;;;;9.26;100.00;102242.06;4996643;28;20101;-72
2023/04/16 06:59:38;;;;;;;83.90;36.15;;;;;;;9.20;100.00;102232.50;4976919;28;20398;-71
2023/04/16 07:02:06;;;;;;;102.55;38.60;;;;;;;9.39;100.00;102238.06;4978107;28;20026;-71
2023/04/16 07:04:32;;;;;;;87.78;37.55;;;;;;;9.20;100.00;102239.63;4984444;28;20035;-72
2023/04/16 07:06:57;;;;;;;91.13;36.30;;;;;;;9.46;100.00;102241.34;4983599;28;20198;-72
2023/04/16 07:09:23;;;;;;;85.15;36.17;;;;;;;10.08;100.00;102238.13;4975899;28;20042;-72
2023/04/16 07:11:49;;;;;;;76.43;33.05;;;;;;;10.43;100.00;102226.09;4979542;28;20077;-70
2023/04/16 07:14:15;;;;;;;75.97;33.58;;;;;;;10.07;100.00;102213.25;4936524;28;20586;-72
2023/04/16 07:16:40;;;;;;;75.45;34.63;;;;;;;10.60;100.00;102215.59;4974389;28;20543;-71
2023/04/16 07:19:06;;;;;;;73.88;30.70;;;;;;;10.60;100.00;102217.41;4964121;28;20094;-72
2023/04/16 07:21:32;;;;;;;73.00;32.05;;;;;;;10.29;100.00;102225.75;4964386;28;20101;-71
2023/04/16 07:23:57;;;;;;;68.22;30.55;;;;;;;10.50;100.00;102218.72;4960373;28;20042;-71
2023/04/16 07:26:23;;;;;;;69.63;30.80;;;;;;;10.51;100.00;102210.66;4967027;28;20046;-71
2023/04/16 07:28:48;;;;;;;74.50;32.75;;;;;;;10.39;100.00;102213.78;4956844;28;20030;-70
2023/04/16 07:31:14;;;;;;;78.40;33.67;;;;;;;9.96;100.00;102234.13;4971919;28;20093;-70
2023/04/16 07:33:40;;;;;;;75.47;32.88;;;;;;;10.36;100.00;102229.94;4959591;28;20122;-69
2023/04/16 07:36:05;;;;;;;70.05;32.72;;;;;;;10.36;100.00;102228.13;4970960;28;20035;-71
2023/04/16 07:38:31;;;;;;;83.07;32.03;;;;;;;10.35;100.00;102234.41;4964018;28;20053;-71
2023/04/16 07:40:57;;;;;;;74.10;32.90;;;;;;;10.93;100.00;102228.44;4970571;28;20066;-71
2023/04/16 07:43:22;;;;;;;71.75;32.45;;;;;;;11.11;100.00;102226.81;4961193;28;20135;-71
2023/04/16 07:45:48;;;;;;;65.32;31.83;;;;;;;11.39;100.00;102227.31;4963261;28;20753;-71
2023/04/16 07:48:13;;;;;;;75.43;33.83;;;;;;;10.82;100.00;102228.91;4954739;28;20043;-70
2023/04/16 07:50:40;;;;;;;78.07;35.00;;;;;;;10.76;100.00;102237.19;4961529;28;20889;-70
2023/04/16 07:53:06;;;;;;;70.35;33.22;;;;;;;10.92;100.00;102236.53;4963683;28;20046;-70
2023/04/16 07:55:32;;;;;;;67.32;32.30;;;;;;;11.25;100.00;102239.56;4962156;28;20920;-71
2023/04/16 07:57:57;;;;;;;70.30;32.95;;;;;;;11.54;100.00;102239.13;4973242;28;20312;-71
2023/04/16 08:00:23;;;;;;;73.85;33.33;;;;;;;11.56;100.00;102237.25;4956400;28;20059;-71
2023/04/16 08:02:49;;;;;;;71.93;33.30;;;;;;;11.14;100.00;102240.91;4956059;28;20054;-71
2023/04/16 08:05:14;;;;;;;63.70;32.75;;;;;;;11.53;100.00;102239.19;4974435;28;20038;-71
2023/04/16 08:07:40;;;;;;;76.80;35.28;;;;;;;11.48;100.00;102243.88;4929886;28;20821;-71
2023/04/16 08:10:06;;;;;;;78.75;35.45;;;;;;;11.21;100.00;102248.63;4963805;28;20035;-70
2023/04/16 08:12:32;;;;;;;84.18;36.08;;;;;;;11.22;100.00;102248.56;4961614;28;20113;-70
2023/04/16 08:14:57;;;;;;;78.07;34.85;;;;;;;11.15;100.00;102255.13;4975392;28;20109;-72
2023/04/16 08:17:23;;;;;;;83.57;34.97;;;;;;;11.01;100.00;102257.50;4975038;28;20051;-69
2023/04/16 08:19:48;;;;;;;83.40;34.75;;;;;;;11.35;100.00;102259.59;4979029;28;20026;-70
2023/04/16 08:22:14;;;;;;;75.72;33.47;;;;;;;11.33;100.00;102253.44;4966663;28;20852;-69
2023/04/16 08:24:40;;;;;;;74.43;35.35;;;;;;;11.89;100.00;102264.25;4961944;28;20043;-69
2023/04/16 08:27:05;;;;;;;76.30;34.42;;;;;;;12.53;100.00;102260.34;4963210;28;20035;-72
2023/04/16 08:29:31;;;;;;;67.63;31.10;;;;;;;12.13;100.00;102264.94;4964116;28;20038;-72
2023/04/16 08:31:58;;;;;;;73.85;32.60;;;;;;;11.70;100.00;102266.03;4962906;28;20127;-69
2023/04/16 08:34:24;;;;;;;70.35;30.70;;;;;;;11.24;100.00;102275.19;4960702;28;20098;-72
2023/04/16 08:36:49;;;;;;;86.43;35.13;;;;;;;11.02;100.00;102283.25;4965959;28;20031;-71
2023/04/16 08:39:15;;;;;;;77.60;33.28;;;;;;;11.02;100.00;102286.78;4960175;28;20098;-71
2023/04/16 08:41:43;;;;;;;85.50;34.42;;;;;;;10.97;100.00;102287.91;4958030;28;20109;-69
2023/04/16 08:44:17;;;;;;;83.10;34.97;;;;;;;10.96;100.00;102291.53;4979749;28;20544;-69
2023/04/16 08:46:43;;;;;;;100.22;34.85;;;;;;;10.95;100.00;102303.13;4964624;28;20918;-72
2023/04/16 08:49:16;;;;;;;85.93;36.33;;;;;;;11.30;100.00;102302.50;4966836;28;20761;-71
2023/04/16 08:51:48;;;;;;;73.78;32.08;;;;;;;11.80;100.00;102287.88;4960905;28;20038;-72
2023/04/16 08:54:37;;;;;;;75.05;33.63;;;;;;;11.84;100.00;102290.34;4964833;28;20045;-72
2023/04/16 08:57:05;;;;;;;79.90;35.53;;;;;;;11.79;100.00;102294.13;4976578;28;20039;-71
2023/04/16 08:59:41;;;;;;;81.25;34.58;;;;;;;11.71;100.00;102294.47;4952764;28;20042;-69
2023/04/16 09:02:46;;;;;;;81.55;33.15;;;;;;;11.68;100.00;102294.59;4914108;28;20543;-69
2023/04/16 09:05:17;;;;;;;89.22;33.40;;;;;;;11.25;100.00;102309.84;4966125;28;20047;-69
2023/04/16 09:07:46;;;;;;;76.75;33.67;;;;;;;11.22;100.00;102309.09;4945101;28;20399;-70
2023/04/16 09:10:14;;;;;;;81.05;32.00;;;;;;;11.64;100.00;102309.03;4904477;28;20619;-69
2023/04/16 09:12:41;;;;;;;86.38;34.22;;;;;;;12.06;100.00;102300.94;4910546;28;21137;-70
2023/04/16 09:15:09;;;;;;;77.07;32.00;;;;;;;12.28;100.00;102294.56;4976985;28;20038;-72
2023/04/16 09:17:35;;;;;;;76.32;33.25;;;;;;;12.88;100.00;102296.09;4964569;28;20663;-71
2023/04/16 09:20:04;;;;;;;76.05;32.03;;;;;;;13.36;100.00;102297.28;4968000;28;20045;-72
2023/04/16 09:22:31;;;;;;;72.72;31.95;;;;;;;13.09;100.00;102299.50;4967330;28;20074;-72
2023/04/16 09:24:57;;;;;;;75.90;31.65;;;;;;;13.42;100.00;102286.22;4966939;28;20582;-70
2023/04/16 09:27:24;;;;;;;77.15;32.92;;;;;;;13.21;100.00;102295.34;4976584;28;20645;-69
2023/04/16 09:29:50;;;;;;;66.78;30.80;;;;;;;13.57;100.00;102289.06;4978125;28;20049;-70
2023/04/16 09:32:15;;;;;;;64.95;31.48;;;;;;;13.60;100.00;102287.06;4964002;28;20057;-69
2023/04/16 09:35:00;;;;;;;65.82;31.65;;;;;;;13.71;100.00;102290.06;4962399;28;20078;-69
2023/04/16 09:37:31;;;;;;;59.80;30.77;;;;;;;14.09;100.00;102283.56;4963306;28;20058;-69
2023/04/16 09:39:59;;;;;;;72.53;32.90;;;;;;;14.52;100.00;102295.47;4961911;28;20121;-69
2023/04/16 09:42:30;;;;;;;62.33;29.77;;;;;;;13.86;100.00;102290.19;4961401;28;20048;-70
2023/04/16 09:44:57;;;;;;;71.88;30.98;;;;;;;14.15;100.00;102294.81;4933020;28;20039;-69
2023/04/16 09:47:26;;;;;;;65.65;31.58;;;;;;;13.79;100.00;102299.50;4957126;28;20046;-70
2023/04/16 09:49:57;;;;;;;61.00;31.75;;;;;;;13.73;100.00;102298.88;4957870;28;20070;-70
2023/04/16 09:52:23;;;;;;;68.60;29.77;;;;;;;13.71;100.00;102302.59;4974571;28;20031;-70
2023/04/16 09:54:50;;;;;;;60.25;27.65;;;;;;;13.53;100.00;102306.25;4970371;28;20539;-70
2023/04/16 09:57:21;;;;;;;61.75;29.17;;;;;;;13.78;100.00;102303.13;4952618;28;20070;-69
2023/04/16 10:00:09;;;;;;;60.75;29.63;;;;;;;14.00;100.00;102290.28;4967709;28;20036;-69
2023/04/16 10:02:37;;;;;;;57.00;30.15;;;;;;;14.26;100.00;102291.56;4959252;28;20031;-69
2023/04/16 10:05:05;;;;;;;55.33;28.08;;;;;;;14.90;100.00;102287.88;4964390;28;20085;-69
2023/04/16 10:07:35;;;;;;;53.80;28.80;;;;;;;14.35;100.00;102298.19;4960972;28;20038;-69
2023/04/16 10:10:02;;;;;;;58.17;28.73;;;;;;;14.15;100.00;102299.31;4965781;28;20038;-69
2023/04/16 10:12:29;;;;;;;56.08;28.95;;;;;;;14.17;100.00;102303.66;4968796;28;20117;-69
2023/04/16 10:14:55;;;;;;;63.70;29.17;;;;;;;14.50;100.00;102295.53;4970765;28;20042;-69
2023/04/16 10:17:21;;;;;;;53.40;28.08;;;;;;;14.66;100.00;102303.63;4964932;28;20047;-70
2023/04/16 10:19:47;;;;;;;50.17;27.35;;;;;;;14.92;100.00;102299.44;4963182;28;20419;-69
2023/04/16 10:22:12;;;;;;;58.10;28.20;;;;;;;15.01;100.00;102293.53;4955746;28;20073;-69
2023/04/16 10:24:40;;;;;;;52.20;27.17;;;;;;;15.10;100.00;102297.47;4962613;28;20042;-69
2023/04/16 10:27:05;;;;;;;55.45;26.77;;;;;;;15.31;100.00;102295.31;4964469;28;20090;-69
2023/04/16 10:29:32;;;;;;;48.30;27.10;;;;;;;15.21;100.00;102299.50;4962523;28;20035;-69
2023/04/16 10:31:59;;;;;;;53.45;27.45;;;;;;;14.62;100.00;102302.06;4966630;28;20035;-71
2023/04/16 10:34:26;;;;;;;47.35;24.92;;;;;;;15.01;100.00;102293.53;4965630;28;20034;-69
2023/04/16 10:36:53;;;;;;;49.67;26.60;;;;;;;14.76;100.00;102291.41;4962657;28;20572;-70
2023/04/16 10:39:21;;;;;;;48.30;26.80;;;;;;;13.67;100.00;102299.19;4961787;28;20038;-69
2023/04/16 10:41:47;;;;;;;48.03;24.98;;;;;;;13.31;100.00;102295.78;4962190;28;20529;-69
2023/04/16 10:44:15;;;;;;;46.85;26.65;;;;;;;14.04;100.00;102294.53;4963285;28;20082;-71
2023/04/16 10:46:42;;;;;;;52.75;28.27;;;;;;;14.59;100.00;102285.25;4961275;28;20126;-68
2023/04/16 10:49:18;;;;;;;49.85;27.70;;;;;;;14.85;100.00;102281.91;4964385;28;20038;-71
2023/04/16 10:52:02;;;;;;;44.03;25.15;;;;;;;14.60;100.00;102279.78;4959148;28;20050;-69
2023/04/16 10:54:30;;;;;;;48.20;26.35;;;;;;;14.37;100.00;102290.94;4962376;28;20557;-69
2023/04/16 10:56:58;;;;;;;42.17;25.20;;;;;;;14.27;100.00;102287.03;4958194;28;20035;-69
2023/04/16 10:59:24;;;;;;;40.17;23.67;;;;;;;14.89;100.00;102285.31;4953417;28;20150;-69
2023/04/16 11:01:57;;;;;;;37.90;22.80;;;;;;;15.32;96.91;102285.47;4960377;28;20031;-69